Time;durP1;ratioP1;P1;durP2;ratioP2;P2;SDS_P1;SDS_P2;PMS_P1;PMS_P2;Temp;Humidity;BMP_temperature;BMP_pressure;BME280_temperature;BME280_humidity;BME280_pressure;Samples;Min_cycle;Max_cycle;Signal;HPM_P1;HPM_P2
2021/06/25 00:01:08;;;;;;;3.60;3.30;;;;;;;;;;483365;246;27612;-73
2021/06/25 00:03:10;;;;;;;3.97;2.97;;;;;;;;;;483368;246;27578;-73
2021/06/25 00:05:12;;;;;;;3.20;3.00;;;;;;;;;;483280;246;27500;-74
2021/06/25 00:07:14;;;;;;;3.00;2.80;;;;;;;;;;483233;246;27619;-73
2021/06/25 00:09:17;;;;;;;2.87;2.67;;;;;;;;;;483837;245;27490;-73
2021/06/25 00:11:19;;;;;;;3.20;3.00;;;;;;;;;;485815;245;27465;-73
2021/06/25 00:13:21;;;;;;;2.77;2.60;;;;;;;;;;485869;245;27402;-74
2021/06/25 00:15:23;;;;;;;2.80;2.60;;;;;;;;;;485844;245;27420;-73
2021/06/25 00:17:25;;;;;;;3.50;3.20;;;;;;;;;;485828;245;27578;-73
2021/06/25 00:19:27;;;;;;;3.20;2.90;;;;;;;;;;485874;245;27507;-73
2021/06/25 00:21:29;;;;;;;3.20;3.00;;;;;;;;;;485855;245;27425;-73
2021/06/25 00:23:31;;;;;;;2.80;2.60;;;;;;;;;;485916;245;27442;-74
2021/06/25 00:25:33;;;;;;;3.40;3.20;;;;;;;;;;485909;245;27417;-73
2021/06/25 00:27:36;;;;;;;2.83;2.63;;;;;;;;;;485933;245;27524;-73
2021/06/25 00:29:38;;;;;;;3.00;2.80;;;;;;;;;;485907;245;27429;-73
2021/06/25 00:31:40;;;;;;;2.40;2.30;;;;;;;;;;485904;245;27443;-73
2021/06/25 00:33:42;;;;;;;3.40;2.90;;;;;;;;;;485920;245;27427;-73
2021/06/25 00:35:44;;;;;;;6.83;3.47;;;;;;;;;;485934;245;27539;-73
2021/06/25 00:37:46;;;;;;;3.40;3.10;;;;;;;;;;485889;245;27616;-73
2021/06/25 00:39:48;;;;;;;3.57;3.27;;;;;;;;;;485907;245;27468;-73
2021/06/25 00:41:50;;;;;;;3.63;3.40;;;;;;;;;;485815;245;27429;-73
2021/06/25 00:43:52;;;;;;;4.20;3.90;;;;;;;;;;485958;245;27536;-73
2021/06/25 00:45:55;;;;;;;3.53;3.23;;;;;;;;;;485878;245;27434;-73
2021/06/25 00:47:57;;;;;;;3.80;3.50;;;;;;;;;;485864;245;27456;-73
2021/06/25 00:49:59;;;;;;;3.47;3.20;;;;;;;;;;485910;245;27424;-73
2021/06/25 00:52:01;;;;;;;3.33;3.13;;;;;;;;;;485904;245;27436;-73
2021/06/25 00:54:03;;;;;;;3.70;3.30;;;;;;;;;;485933;245;27393;-73
2021/06/25 00:56:05;;;;;;;4.03;3.73;;;;;;;;;;485925;245;27491;-73
2021/06/25 00:58:07;;;;;;;3.77;3.47;;;;;;;;;;485956;245;27393;-73
2021/06/25 01:00:09;;;;;;;3.23;3.03;;;;;;;;;;485943;245;27421;-73
2021/06/25 01:02:12;;;;;;;3.67;3.27;;;;;;;;;;485948;245;27404;-74
2021/06/25 01:04:14;;;;;;;3.67;3.37;;;;;;;;;;485953;245;27420;-73
2021/06/25 01:06:16;;;;;;;3.90;3.50;;;;;;;;;;485963;245;27401;-73
2021/06/25 01:08:18;;;;;;;4.47;4.07;;;;;;;;;;485942;245;27477;-73
2021/06/25 01:10:20;;;;;;;3.63;3.20;;;;;;;;;;485929;245;27481;-74
2021/06/25 01:12:22;;;;;;;3.93;3.63;;;;;;;;;;485931;245;27406;-73
2021/06/25 01:14:24;;;;;;;3.50;3.20;;;;;;;;;;485929;245;27478;-73
2021/06/25 01:16:26;;;;;;;3.50;3.20;;;;;;;;;;485948;245;27399;-73
2021/06/25 01:18:28;;;;;;;3.73;3.40;;;;;;;;;;485928;245;27512;-74
2021/06/25 01:20:31;;;;;;;3.50;3.20;;;;;;;;;;485925;245;27516;-73
2021/06/25 01:22:38;;;;;;;3.57;3.30;;;;;;;;;;485912;245;27436;-73
2021/06/25 01:24:38;;;;;;;4.70;4.20;;;;;;;;;;485748;245;27429;-73
2021/06/25 01:26:40;;;;;;;4.50;4.10;;;;;;;;;;485949;245;27421;-74
2021/06/25 01:28:42;;;;;;;7.23;4.00;;;;;;;;;;485901;245;27409;-73
2021/06/25 01:30:44;;;;;;;4.37;4.00;;;;;;;;;;485935;245;27464;-74
2021/06/25 01:32:46;;;;;;;4.80;4.30;;;;;;;;;;485948;245;27401;-73
2021/06/25 01:34:48;;;;;;;4.60;4.20;;;;;;;;;;485928;245;27801;-73
2021/06/25 01:36:50;;;;;;;3.83;3.53;;;;;;;;;;485951;245;27468;-73
2021/06/25 01:38:52;;;;;;;5.07;4.63;;;;;;;;;;485901;245;27412;-73
2021/06/25 01:40:55;;;;;;;5.00;4.50;;;;;;;;;;485289;245;27472;-73
2021/06/25 01:42:57;;;;;;;5.10;4.70;;;;;;;;;;485747;245;27401;-73
2021/06/25 01:44:59;;;;;;;5.30;4.80;;;;;;;;;;485758;245;27519;-73
2021/06/25 01:47:01;;;;;;;4.90;4.50;;;;;;;;;;485698;245;27475;-73
2021/06/25 01:49:03;;;;;;;6.50;5.13;;;;;;;;;;485893;245;27413;-73
2021/06/25 01:51:05;;;;;;;5.60;5.10;;;;;;;;;;485910;245;27769;-74
2021/06/25 01:53:07;;;;;;;6.00;5.50;;;;;;;;;;485914;245;27527;-73
2021/06/25 01:55:10;;;;;;;5.83;5.33;;;;;;;;;;485918;245;27881;-74
2021/06/25 01:57:12;;;;;;;8.10;6.57;;;;;;;;;;485916;245;27425;-73
2021/06/25 01:59:14;;;;;;;7.83;6.60;;;;;;;;;;485946;245;27453;-73
2021/06/25 02:01:17;;;;;;;9.53;8.23;;;;;;;;;;485928;245;27521;-73
2021/06/25 02:03:18;;;;;;;9.03;7.80;;;;;;;;;;485814;245;27762;-73
2021/06/25 02:05:20;;;;;;;10.97;9.30;;;;;;;;;;485903;245;27543;-73
2021/06/25 02:07:22;;;;;;;14.20;10.80;;;;;;;;;;485928;245;27511;-73
2021/06/25 02:09:24;;;;;;;13.03;11.63;;;;;;;;;;485919;245;27524;-73
2021/06/25 02:11:26;;;;;;;16.83;13.07;;;;;;;;;;485920;245;27535;-73
2021/06/25 02:13:28;;;;;;;12.67;11.07;;;;;;;;;;485882;245;27521;-73
2021/06/25 02:15:31;;;;;;;13.90;11.53;;;;;;;;;;485943;245;27909;-73
2021/06/25 02:17:33;;;;;;;16.40;11.30;;;;;;;;;;485941;245;27449;-73
2021/06/25 02:19:35;;;;;;;16.40;12.90;;;;;;;;;;485813;245;27925;-73
2021/06/25 02:21:37;;;;;;;17.60;13.50;;;;;;;;;;485926;245;27418;-73
2021/06/25 02:23:39;;;;;;;16.17;14.07;;;;;;;;;;485902;245;28041;-73
2021/06/25 02:25:41;;;;;;;17.50;14.70;;;;;;;;;;485930;245;27508;-73
2021/06/25 02:27:43;;;;;;;19.30;15.33;;;;;;;;;;485913;245;27473;-73
2021/06/25 02:29:45;;;;;;;20.37;15.00;;;;;;;;;;485937;245;27410;-73
2021/06/25 02:31:48;;;;;;;18.87;15.30;;;;;;;;;;485925;245;27479;-73
2021/06/25 02:33:50;;;;;;;16.17;13.53;;;;;;;;;;485913;245;28014;-73
2021/06/25 02:35:52;;;;;;;14.67;12.63;;;;;;;;;;485929;245;27394;-73
2021/06/25 02:37:55;;;;;;;15.60;13.80;;;;;;;;;;485946;245;27896;-73
2021/06/25 02:39:56;;;;;;;16.30;14.17;;;;;;;;;;485837;245;27385;-73
2021/06/25 02:41:58;;;;;;;15.87;12.53;;;;;;;;;;485928;245;28053;-73
2021/06/25 02:44:00;;;;;;;22.27;13.30;;;;;;;;;;485900;245;27452;-73
2021/06/25 02:46:02;;;;;;;18.03;14.67;;;;;;;;;;485900;245;27497;-73
2021/06/25 02:48:04;;;;;;;19.23;14.17;;;;;;;;;;485932;245;27497;-73
2021/06/25 02:50:07;;;;;;;20.23;15.47;;;;;;;;;;485916;245;27370;-73
2021/06/25 02:52:09;;;;;;;20.17;14.50;;;;;;;;;;485927;245;27405;-73
2021/06/25 02:54:11;;;;;;;17.77;14.57;;;;;;;;;;485913;245;27402;-74
2021/06/25 02:56:13;;;;;;;17.40;14.10;;;;;;;;;;485940;245;27808;-74
2021/06/25 02:58:15;;;;;;;18.10;14.40;;;;;;;;;;485954;245;27512;-74
2021/06/25 03:00:17;;;;;;;18.73;15.57;;;;;;;;;;485908;245;28058;-73
2021/06/25 03:02:19;;;;;;;18.00;14.90;;;;;;;;;;485934;245;27440;-73
2021/06/25 03:04:21;;;;;;;20.77;17.00;;;;;;;;;;485896;245;28145;-73
2021/06/25 03:06:24;;;;;;;20.17;16.10;;;;;;;;;;485942;245;27448;-73
2021/06/25 03:08:26;;;;;;;19.50;15.30;;;;;;;;;;485928;245;27437;-73
2021/06/25 03:10:28;;;;;;;20.17;15.30;;;;;;;;;;485920;245;27436;-73
2021/06/25 03:12:30;;;;;;;19.47;14.53;;;;;;;;;;485920;245;27496;-73
2021/06/25 03:14:32;;;;;;;15.67;13.63;;;;;;;;;;485950;245;27443;-73
2021/06/25 03:16:34;;;;;;;18.77;14.67;;;;;;;;;;485926;245;27622;-73
2021/06/25 03:18:36;;;;;;;19.27;15.00;;;;;;;;;;485923;245;27529;-73
2021/06/25 03:20:38;;;;;;;20.97;16.43;;;;;;;;;;485897;245;27396;-73
2021/06/25 03:22:40;;;;;;;20.93;16.50;;;;;;;;;;485917;245;27886;-73
2021/06/25 03:24:43;;;;;;;21.47;17.27;;;;;;;;;;485910;245;27406;-73
2021/06/25 03:26:45;;;;;;;18.73;15.40;;;;;;;;;;485907;245;27870;-73
2021/06/25 03:28:47;;;;;;;19.10;14.60;;;;;;;;;;485885;245;27493;-73
2021/06/25 03:30:49;;;;;;;16.13;14.03;;;;;;;;;;485890;245;27860;-73
2021/06/25 03:32:51;;;;;;;19.87;14.20;;;;;;;;;;485913;245;27401;-71
2021/06/25 03:34:53;;;;;;;17.63;14.37;;;;;;;;;;485915;245;27385;-73
2021/06/25 03:36:55;;;;;;;18.27;14.90;;;;;;;;;;485913;245;27409;-73
2021/06/25 03:38:57;;;;;;;16.43;14.23;;;;;;;;;;485926;245;27397;-73
2021/06/25 03:41:00;;;;;;;19.53;14.83;;;;;;;;;;485931;245;27544;-73
2021/06/25 03:43:02;;;;;;;19.57;16.43;;;;;;;;;;485935;245;27401;-73
2021/06/25 03:45:04;;;;;;;19.27;16.03;;;;;;;;;;485893;245;28219;-73
2021/06/25 03:47:06;;;;;;;18.10;15.07;;;;;;;;;;485878;245;27468;-74
2021/06/25 03:49:08;;;;;;;21.40;16.47;;;;;;;;;;485895;245;27877;-73
2021/06/25 03:51:10;;;;;;;19.27;14.73;;;;;;;;;;485909;245;27423;-73
2021/06/25 03:53:12;;;;;;;18.27;15.23;;;;;;;;;;485917;245;28639;-73
2021/06/25 03:55:14;;;;;;;16.63;14.53;;;;;;;;;;485901;245;27450;-73
2021/06/25 03:57:16;;;;;;;17.50;15.20;;;;;;;;;;485937;245;27421;-73
2021/06/25 03:59:19;;;;;;;19.40;15.03;;;;;;;;;;485900;245;27433;-73
2021/06/25 04:01:21;;;;;;;20.57;15.30;;;;;;;;;;485913;245;27434;-74
2021/06/25 04:03:23;;;;;;;20.97;15.70;;;;;;;;;;485892;245;27438;-73
2021/06/25 04:05:25;;;;;;;22.57;16.40;;;;;;;;;;485931;245;27530;-73
2021/06/25 04:07:27;;;;;;;19.83;16.00;;;;;;;;;;485923;245;27536;-73
2021/06/25 04:09:29;;;;;;;22.17;16.63;;;;;;;;;;485900;245;27511;-73
2021/06/25 04:11:31;;;;;;;18.73;14.73;;;;;;;;;;485914;245;27988;-73
2021/06/25 04:13:33;;;;;;;20.97;16.27;;;;;;;;;;485900;245;27436;-73
2021/06/25 04:15:36;;;;;;;18.30;14.73;;;;;;;;;;485926;245;27935;-73
2021/06/25 04:17:38;;;;;;;19.37;15.10;;;;;;;;;;485802;245;27441;-73
2021/06/25 04:19:40;;;;;;;18.83;14.57;;;;;;;;;;485938;245;27907;-73
2021/06/25 04:21:42;;;;;;;18.97;15.30;;;;;;;;;;485916;245;27441;-73
2021/06/25 04:23:44;;;;;;;19.63;15.20;;;;;;;;;;485908;245;27504;-73
2021/06/25 04:25:46;;;;;;;17.70;13.93;;;;;;;;;;485897;245;27567;-73
2021/06/25 04:27:48;;;;;;;19.60;15.60;;;;;;;;;;485938;245;27405;-73
2021/06/25 04:29:50;;;;;;;17.40;15.50;;;;;;;;;;485871;245;27448;-73
2021/06/25 04:31:54;;;;;;;21.10;15.27;;;;;;;;;;485921;245;27388;-73
2021/06/25 04:33:55;;;;;;;21.23;15.63;;;;;;;;;;485826;245;27896;-73
2021/06/25 04:35:57;;;;;;;16.90;14.57;;;;;;;;;;485920;245;27470;-73
2021/06/25 04:38:01;;;;;;;17.60;14.50;;;;;;;;;;485929;245;27884;-73
2021/06/25 04:40:01;;;;;;;18.93;14.90;;;;;;;;;;485732;245;27459;-73
2021/06/25 04:42:03;;;;;;;17.07;14.00;;;;;;;;;;485960;245;27904;-73
2021/06/25 04:44:05;;;;;;;18.43;14.17;;;;;;;;;;485954;245;27520;-74
2021/06/25 04:46:07;;;;;;;22.17;16.40;;;;;;;;;;485945;245;27598;-73
2021/06/25 04:48:09;;;;;;;22.40;18.03;;;;;;;;;;485957;245;27404;-73
2021/06/25 04:50:12;;;;;;;22.60;16.70;;;;;;;;;;485859;245;27393;-73
2021/06/25 04:52:14;;;;;;;21.80;16.43;;;;;;;;;;485963;245;27603;-73
2021/06/25 04:54:16;;;;;;;19.53;15.57;;;;;;;;;;485919;245;27441;-73
2021/06/25 04:56:18;;;;;;;17.80;13.83;;;;;;;;;;485925;245;27523;-74
2021/06/25 04:58:27;;;;;;;21.70;14.93;;;;;;;;;;485958;245;27432;-73
2021/06/25 05:00:22;;;;;;;17.30;14.20;;;;;;;;;;485153;245;27992;-73
2021/06/25 05:02:24;;;;;;;19.90;13.33;;;;;;;;;;485931;245;27592;-73
2021/06/25 05:04:26;;;;;;;15.90;12.70;;;;;;;;;;485951;245;28010;-73
2021/06/25 05:06:28;;;;;;;18.10;14.50;;;;;;;;;;485896;245;27452;-73
2021/06/25 05:08:31;;;;;;;17.27;14.43;;;;;;;;;;485946;245;27446;-73
2021/06/25 05:10:33;;;;;;;16.43;12.80;;;;;;;;;;485890;245;27511;-73
2021/06/25 05:12:35;;;;;;;17.80;15.13;;;;;;;;;;485937;245;27543;-73
2021/06/25 05:14:37;;;;;;;16.63;14.10;;;;;;;;;;485860;245;27448;-73
2021/06/25 05:16:39;;;;;;;19.03;14.60;;;;;;;;;;485928;245;27429;-72
2021/06/25 05:18:41;;;;;;;15.63;13.63;;;;;;;;;;485925;245;27520;-73
2021/06/25 05:20:43;;;;;;;18.70;14.30;;;;;;;;;;485920;245;27424;-73
2021/06/25 05:22:45;;;;;;;23.00;14.10;;;;;;;;;;485911;245;27960;-72
2021/06/25 05:24:48;;;;;;;19.00;13.90;;;;;;;;;;485939;245;27406;-73
2021/06/25 05:26:50;;;;;;;20.03;14.47;;;;;;;;;;485934;245;27888;-73
2021/06/25 05:28:52;;;;;;;21.33;15.80;;;;;;;;;;485954;245;27426;-73
2021/06/25 05:30:54;;;;;;;18.93;15.00;;;;;;;;;;485917;245;27496;-72
2021/06/25 05:32:56;;;;;;;18.80;14.60;;;;;;;;;;485966;245;27452;-72
2021/06/25 05:34:58;;;;;;;18.77;14.60;;;;;;;;;;485932;245;27440;-73
2021/06/25 05:37:00;;;;;;;19.40;16.17;;;;;;;;;;485953;245;27452;-72
2021/06/25 05:39:02;;;;;;;20.97;14.50;;;;;;;;;;485959;245;27390;-74
2021/06/25 05:41:05;;;;;;;20.40;15.40;;;;;;;;;;485947;245;27555;-73
2021/06/25 05:43:07;;;;;;;15.10;12.87;;;;;;;;;;485964;245;27389;-73
2021/06/25 05:45:09;;;;;;;19.17;13.90;;;;;;;;;;485949;245;27956;-73
2021/06/25 05:47:11;;;;;;;16.47;14.20;;;;;;;;;;485968;245;27440;-73
2021/06/25 05:49:13;;;;;;;15.17;13.30;;;;;;;;;;485975;245;27867;-72
2021/06/25 05:51:15;;;;;;;16.97;13.57;;;;;;;;;;485911;245;27535;-73
2021/06/25 05:53:17;;;;;;;18.83;14.50;;;;;;;;;;485947;245;28628;-73
2021/06/25 05:55:19;;;;;;;16.37;14.53;;;;;;;;;;485933;245;27436;-73
2021/06/25 05:57:21;;;;;;;18.40;14.50;;;;;;;;;;485934;245;27430;-73
2021/06/25 05:59:24;;;;;;;20.60;15.00;;;;;;;;;;485931;245;27446;-73
2021/06/25 06:01:29;;;;;;;17.30;13.70;;;;;;;;;;485914;245;27434;-72
2021/06/25 06:03:28;;;;;;;16.50;14.20;;;;;;;;;;485501;245;27436;-73
2021/06/25 06:05:30;;;;;;;15.67;13.27;;;;;;;;;;485929;245;27444;-73
2021/06/25 06:07:32;;;;;;;16.30;13.90;;;;;;;;;;485941;245;28543;-73
2021/06/25 06:09:34;;;;;;;18.10;13.43;;;;;;;;;;485942;245;27440;-73
2021/06/25 06:11:36;;;;;;;14.83;12.77;;;;;;;;;;485938;245;27996;-73
2021/06/25 06:13:38;;;;;;;18.07;14.57;;;;;;;;;;485927;245;27432;-73
2021/06/25 06:15:41;;;;;;;18.20;15.00;;;;;;;;;;485946;245;27444;-73
2021/06/25 06:17:46;;;;;;;14.97;13.00;;;;;;;;;;485937;245;27516;-72
2021/06/25 06:19:47;;;;;;;17.97;14.70;;;;;;;;;;485660;245;27500;-73
2021/06/25 06:31:21;;;;;;;19.80;15.47;;;;;;;;;;485931;245;28074;-73
2021/06/25 06:33:34;;;;;;;16.77;14.80;;;;;;;;;;485876;245;28006;-73
2021/06/25 06:35:34;;;;;;;15.17;13.50;;;;;;;;;;485718;245;27401;-73
2021/06/25 06:37:36;;;;;;;21.80;15.33;;;;;;;;;;485919;245;27861;-73
2021/06/25 06:39:38;;;;;;;18.90;14.77;;;;;;;;;;485934;245;27393;-72
2021/06/25 06:41:40;;;;;;;16.20;14.07;;;;;;;;;;485927;245;27393;-73
2021/06/25 06:43:43;;;;;;;16.07;13.00;;;;;;;;;;485924;245;27411;-73
2021/06/25 06:45:44;;;;;;;15.73;13.70;;;;;;;;;;485886;245;27474;-73
2021/06/25 06:47:47;;;;;;;15.73;12.87;;;;;;;;;;485905;245;27453;-73
2021/06/25 06:49:49;;;;;;;16.23;13.43;;;;;;;;;;485921;245;27495;-73
2021/06/25 06:51:51;;;;;;;16.50;13.70;;;;;;;;;;485929;245;28011;-72
2021/06/25 06:53:54;;;;;;;15.33;13.50;;;;;;;;;;485924;245;27413;-73
2021/06/25 06:55:55;;;;;;;19.90;13.90;;;;;;;;;;485855;245;27861;-73
2021/06/25 06:57:57;;;;;;;16.23;13.63;;;;;;;;;;485909;245;27405;-73
2021/06/25 06:59:59;;;;;;;18.10;14.60;;;;;;;;;;485499;245;27992;-73
2021/06/25 07:02:01;;;;;;;14.70;12.90;;;;;;;;;;485879;245;27441;-72
2021/06/25 07:04:05;;;;;;;13.87;12.40;;;;;;;;;;485923;245;27434;-72
2021/06/25 07:06:06;;;;;;;17.20;13.87;;;;;;;;;;485805;245;27426;-73
2021/06/25 07:08:08;;;;;;;15.77;12.90;;;;;;;;;;485934;245;27429;-73
2021/06/25 07:10:10;;;;;;;14.60;12.20;;;;;;;;;;485961;245;27932;-73
2021/06/25 07:12:12;;;;;;;18.43;13.50;;;;;;;;;;485903;245;27508;-73
2021/06/25 07:14:14;;;;;;;12.83;11.47;;;;;;;;;;485902;245;28072;-73
2021/06/25 07:16:16;;;;;;;13.43;12.03;;;;;;;;;;485914;245;27513;-73
2021/06/25 07:18:18;;;;;;;12.53;11.23;;;;;;;;;;485951;245;28003;-73
2021/06/25 07:20:20;;;;;;;16.80;11.93;;;;;;;;;;485913;245;27436;-73
2021/06/25 07:22:25;;;;;;;13.03;11.63;;;;;;;;;;485918;245;27512;-73
2021/06/25 07:24:25;;;;;;;12.20;11.00;;;;;;;;;;485753;245;27452;-73
2021/06/25 07:26:27;;;;;;;12.80;11.50;;;;;;;;;;485955;245;27496;-73
2021/06/25 07:28:29;;;;;;;12.93;11.60;;;;;;;;;;485889;245;27472;-73
2021/06/25 07:30:31;;;;;;;13.47;11.50;;;;;;;;;;485909;245;27547;-73
2021/06/25 07:32:33;;;;;;;14.20;11.30;;;;;;;;;;485920;245;27444;-73
2021/06/25 07:34:35;;;;;;;12.50;11.20;;;;;;;;;;485812;245;27472;-73
2021/06/25 07:36:37;;;;;;;15.57;11.50;;;;;;;;;;485931;245;27405;-74
2021/06/25 07:38:40;;;;;;;16.80;12.50;;;;;;;;;;485906;245;27401;-73
2021/06/25 07:40:42;;;;;;;14.13;12.53;;;;;;;;;;485912;245;28029;-73
2021/06/25 07:42:44;;;;;;;13.87;11.10;;;;;;;;;;485917;245;27373;-73
2021/06/25 07:44:46;;;;;;;13.20;11.73;;;;;;;;;;485924;245;27951;-73
2021/06/25 07:46:48;;;;;;;13.33;11.90;;;;;;;;;;485910;245;27405;-73
2021/06/25 07:48:50;;;;;;;12.73;11.40;;;;;;;;;;485918;245;27852;-73
2021/06/25 07:50:52;;;;;;;12.50;11.20;;;;;;;;;;485914;245;27397;-73
2021/06/25 07:52:54;;;;;;;13.30;11.80;;;;;;;;;;485914;245;27405;-73
2021/06/25 07:54:56;;;;;;;14.90;12.63;;;;;;;;;;485913;245;27413;-73
2021/06/25 07:56:59;;;;;;;16.00;12.70;;;;;;;;;;485836;245;27508;-73
2021/06/25 07:59:01;;;;;;;14.17;12.00;;;;;;;;;;485832;245;27509;-73
2021/06/25 08:01:03;;;;;;;13.50;12.03;;;;;;;;;;485868;245;27400;-73
2021/06/25 08:03:05;;;;;;;13.40;11.67;;;;;;;;;;485833;245;27560;-73
2021/06/25 08:05:07;;;;;;;15.40;12.33;;;;;;;;;;485886;245;27392;-73
2021/06/25 08:07:09;;;;;;;12.90;10.73;;;;;;;;;;485906;245;28792;-73
2021/06/25 08:09:11;;;;;;;13.03;10.97;;;;;;;;;;485919;245;27464;-73
2021/06/25 08:11:13;;;;;;;12.00;10.53;;;;;;;;;;485907;245;28002;-74
2021/06/25 08:13:16;;;;;;;13.57;12.07;;;;;;;;;;485772;245;27517;-73
2021/06/25 08:15:18;;;;;;;12.93;11.60;;;;;;;;;;485943;245;27426;-73
2021/06/25 08:17:20;;;;;;;14.63;12.17;;;;;;;;;;485934;245;27532;-73
2021/06/25 08:19:22;;;;;;;13.63;11.30;;;;;;;;;;485960;245;27498;-73
2021/06/25 08:21:24;;;;;;;13.63;12.23;;;;;;;;;;485904;245;27557;-73
2021/06/25 08:23:26;;;;;;;15.97;13.20;;;;;;;;;;485926;245;27496;-73
2021/06/25 08:25:28;;;;;;;13.30;11.90;;;;;;;;;;485950;245;27456;-73
2021/06/25 08:27:30;;;;;;;13.70;11.77;;;;;;;;;;485921;245;27544;-73
2021/06/25 08:29:32;;;;;;;12.37;11.07;;;;;;;;;;485919;245;27935;-73
2021/06/25 08:31:35;;;;;;;13.27;11.87;;;;;;;;;;485904;245;27417;-73
2021/06/25 08:33:37;;;;;;;13.10;11.80;;;;;;;;;;485930;245;27923;-73
2021/06/25 08:35:39;;;;;;;12.43;10.90;;;;;;;;;;485936;245;27429;-74
2021/06/25 08:37:41;;;;;;;14.70;12.97;;;;;;;;;;485935;245;27429;-73
2021/06/25 08:39:43;;;;;;;13.57;12.17;;;;;;;;;;485925;245;27433;-73
2021/06/25 08:41:45;;;;;;;15.33;12.13;;;;;;;;;;485914;245;27405;-73
2021/06/25 08:43:47;;;;;;;16.00;12.90;;;;;;;;;;485950;245;27417;-74
2021/06/25 08:45:49;;;;;;;12.93;11.53;;;;;;;;;;485952;245;27395;-73
2021/06/25 08:47:52;;;;;;;14.43;12.60;;;;;;;;;;485955;245;27523;-73
2021/06/25 08:49:54;;;;;;;16.30;13.80;;;;;;;;;;485935;245;27475;-73
2021/06/25 08:51:56;;;;;;;20.17;13.70;;;;;;;;;;485889;245;27979;-73
2021/06/25 08:53:58;;;;;;;16.90;13.67;;;;;;;;;;485939;245;27468;-73
2021/06/25 08:56:00;;;;;;;17.10;13.97;;;;;;;;;;485939;245;27853;-73
2021/06/25 08:58:02;;;;;;;13.20;11.73;;;;;;;;;;485940;245;27436;-73
2021/06/25 09:00:04;;;;;;;13.23;11.90;;;;;;;;;;485913;245;27535;-73
2021/06/25 09:02:06;;;;;;;12.47;11.17;;;;;;;;;;485943;245;27500;-73
2021/06/25 09:04:08;;;;;;;14.30;11.93;;;;;;;;;;485923;245;27385;-72
2021/06/25 09:06:11;;;;;;;15.30;12.73;;;;;;;;;;485937;245;27417;-73
2021/06/25 09:08:13;;;;;;;14.40;12.13;;;;;;;;;;485950;245;27397;-73
2021/06/25 09:10:15;;;;;;;12.10;10.80;;;;;;;;;;485930;245;27492;-73
2021/06/25 09:12:20;;;;;;;14.37;12.13;;;;;;;;;;485940;245;27484;-73
2021/06/25 09:14:19;;;;;;;13.40;12.00;;;;;;;;;;485625;245;28364;-73
2021/06/25 09:16:21;;;;;;;13.20;11.80;;;;;;;;;;485932;245;27512;-72
2021/06/25 09:18:25;;;;;;;13.60;11.20;;;;;;;;;;485930;245;27916;-73
2021/06/25 09:20:25;;;;;;;12.40;11.20;;;;;;;;;;485846;245;27428;-73
2021/06/25 09:22:28;;;;;;;14.40;12.43;;;;;;;;;;485938;245;28002;-73
2021/06/25 09:24:30;;;;;;;13.90;12.20;;;;;;;;;;485949;245;27540;-73
2021/06/25 09:26:34;;;;;;;13.87;11.47;;;;;;;;;;485945;245;27452;-73
2021/06/25 09:28:34;;;;;;;13.70;11.67;;;;;;;;;;485809;245;27537;-73
2021/06/25 09:30:36;;;;;;;12.57;11.27;;;;;;;;;;485745;245;27464;-72
2021/06/25 09:32:38;;;;;;;15.00;13.07;;;;;;;;;;485651;245;27437;-73
2021/06/25 09:34:40;;;;;;;12.40;11.13;;;;;;;;;;485786;245;27436;-73
2021/06/25 09:36:42;;;;;;;11.47;10.30;;;;;;;;;;485701;245;27553;-73
2021/06/25 09:38:44;;;;;;;10.93;9.80;;;;;;;;;;485865;245;27552;-73
2021/06/25 09:40:47;;;;;;;12.97;11.20;;;;;;;;;;485944;245;27928;-73
2021/06/25 09:42:49;;;;;;;11.33;10.17;;;;;;;;;;485939;245;27567;-73
2021/06/25 09:44:51;;;;;;;11.00;9.90;;;;;;;;;;485947;245;28051;-73
2021/06/25 09:46:53;;;;;;;11.17;10.10;;;;;;;;;;485928;245;27432;-73
2021/06/25 09:48:55;;;;;;;15.13;11.47;;;;;;;;;;485938;245;27852;-73
2021/06/25 09:50:57;;;;;;;14.10;11.73;;;;;;;;;;485925;245;27476;-72
2021/06/25 09:52:59;;;;;;;14.40;10.87;;;;;;;;;;485928;245;27377;-72
2021/06/25 09:55:01;;;;;;;12.10;10.80;;;;;;;;;;485930;245;27409;-73
2021/06/25 09:57:07;;;;;;;11.57;10.37;;;;;;;;;;485931;245;27489;-72
2021/06/25 09:59:06;;;;;;;11.00;9.73;;;;;;;;;;485685;245;27417;-73
2021/06/25 10:01:24;;;;;;;14.03;10.40;;;;;;;;;;485923;245;27516;-72
2021/06/25 10:03:25;;;;;;;11.30;10.20;;;;;;;;;;485877;245;27500;-73
2021/06/25 10:05:29;;;;;;;12.23;10.70;;;;;;;;;;485932;245;27508;-73
2021/06/25 10:07:29;;;;;;;12.90;11.60;;;;;;;;;;485752;245;27524;-73
2021/06/25 10:09:31;;;;;;;12.00;10.70;;;;;;;;;;485927;245;27434;-72
2021/06/25 10:11:34;;;;;;;13.57;11.00;;;;;;;;;;485927;245;27524;-73
2021/06/25 10:13:36;;;;;;;12.33;11.03;;;;;;;;;;485938;245;27501;-73
2021/06/25 10:15:38;;;;;;;11.77;10.57;;;;;;;;;;485921;245;27869;-73
2021/06/25 10:17:40;;;;;;;12.43;10.90;;;;;;;;;;485937;245;27458;-73
2021/06/25 10:19:42;;;;;;;13.10;11.80;;;;;;;;;;485954;245;28035;-73
2021/06/25 10:21:44;;;;;;;13.00;10.90;;;;;;;;;;485933;245;27425;-73
2021/06/25 10:23:46;;;;;;;12.50;11.07;;;;;;;;;;485893;245;27492;-73
2021/06/25 10:25:48;;;;;;;11.47;10.37;;;;;;;;;;485907;245;27394;-73
2021/06/25 10:27:50;;;;;;;12.97;11.47;;;;;;;;;;485930;245;27404;-73
2021/06/25 10:29:52;;;;;;;10.73;9.50;;;;;;;;;;485942;245;27552;-73
2021/06/25 10:31:55;;;;;;;11.97;10.77;;;;;;;;;;485915;245;27382;-73
2021/06/25 10:33:57;;;;;;;12.30;11.00;;;;;;;;;;485890;245;27484;-73
2021/06/25 10:35:59;;;;;;;12.37;11.07;;;;;;;;;;485908;245;27397;-73
2021/06/25 10:38:01;;;;;;;14.80;11.83;;;;;;;;;;485918;245;28770;-73
2021/06/25 10:40:03;;;;;;;15.03;12.30;;;;;;;;;;485896;245;27492;-73
2021/06/25 10:42:08;;;;;;;12.33;11.03;;;;;;;;;;485943;245;28113;-73
2021/06/25 10:44:07;;;;;;;11.97;10.77;;;;;;;;;;485631;245;27444;-73
2021/06/25 10:46:09;;;;;;;14.27;11.50;;;;;;;;;;485941;245;27444;-73
2021/06/25 10:48:12;;;;;;;16.20;11.63;;;;;;;;;;485923;245;27447;-73
2021/06/25 10:50:14;;;;;;;14.70;12.40;;;;;;;;;;485943;245;27442;-73
2021/06/25 10:52:16;;;;;;;13.00;11.43;;;;;;;;;;485903;245;27437;-73
2021/06/25 10:54:18;;;;;;;16.40;11.37;;;;;;;;;;485934;245;27445;-73
2021/06/25 10:56:20;;;;;;;11.87;10.57;;;;;;;;;;485927;245;27457;-73
2021/06/25 10:58:22;;;;;;;13.23;11.50;;;;;;;;;;485944;245;27433;-73
2021/06/25 11:00:24;;;;;;;12.10;10.80;;;;;;;;;;485900;245;28073;-73
2021/06/25 11:02:26;;;;;;;14.43;12.90;;;;;;;;;;485939;245;27425;-73
2021/06/25 11:04:28;;;;;;;13.20;11.87;;;;;;;;;;485919;245;27936;-73
2021/06/25 11:06:31;;;;;;;12.73;11.40;;;;;;;;;;485941;245;27433;-73
2021/06/25 11:08:33;;;;;;;12.77;11.47;;;;;;;;;;485926;245;27995;-74
2021/06/25 11:10:35;;;;;;;12.37;10.63;;;;;;;;;;485906;245;27424;-73
2021/06/25 11:12:37;;;;;;;12.30;11.10;;;;;;;;;;485902;245;27413;-73
2021/06/25 11:14:39;;;;;;;11.43;10.23;;;;;;;;;;485905;245;27456;-73
2021/06/25 11:16:41;;;;;;;13.20;11.50;;;;;;;;;;485941;245;27401;-73
2021/06/25 11:18:44;;;;;;;12.40;11.10;;;;;;;;;;485908;245;27409;-73
2021/06/25 11:20:45;;;;;;;12.63;10.90;;;;;;;;;;485889;241;27409;-73
2021/06/25 11:22:48;;;;;;;11.57;10.47;;;;;;;;;;485938;245;27528;-73
2021/06/25 11:24:50;;;;;;;12.40;10.23;;;;;;;;;;485926;245;27433;-73
2021/06/25 11:26:52;;;;;;;12.73;11.43;;;;;;;;;;485944;245;27809;-73
2021/06/25 11:28:54;;;;;;;12.67;11.37;;;;;;;;;;485933;245;27401;-73
2021/06/25 11:30:58;;;;;;;11.80;10.60;;;;;;;;;;485920;245;28015;-73
2021/06/25 11:32:58;;;;;;;12.37;11.03;;;;;;;;;;485778;245;27422;-73
2021/06/25 11:35:00;;;;;;;12.00;10.13;;;;;;;;;;485937;245;27995;-73
2021/06/25 11:37:02;;;;;;;11.37;10.03;;;;;;;;;;485923;245;27511;-73
2021/06/25 11:39:04;;;;;;;11.33;10.23;;;;;;;;;;485950;245;27448;-74
2021/06/25 11:41:07;;;;;;;10.87;9.60;;;;;;;;;;485923;245;27615;-74
2021/06/25 11:43:09;;;;;;;11.57;10.37;;;;;;;;;;485945;245;27500;-74
2021/06/25 11:45:11;;;;;;;12.47;11.20;;;;;;;;;;485922;245;27448;-73
2021/06/25 11:47:15;;;;;;;10.37;9.37;;;;;;;;;;485899;245;27504;-73
2021/06/25 11:49:15;;;;;;;14.67;10.80;;;;;;;;;;485780;245;27521;-73
2021/06/25 11:51:19;;;;;;;11.70;10.50;;;;;;;;;;485921;245;27422;-74
2021/06/25 11:53:19;;;;;;;14.43;12.23;;;;;;;;;;485800;245;27924;-73
2021/06/25 11:55:21;;;;;;;12.67;11.37;;;;;;;;;;485851;245;27433;-74
2021/06/25 11:57:24;;;;;;;12.90;11.00;;;;;;;;;;485926;245;27946;-73
2021/06/25 11:59:26;;;;;;;14.13;12.63;;;;;;;;;;485913;245;27441;-73
2021/06/25 12:01:28;;;;;;;13.40;11.97;;;;;;;;;;485932;245;27982;-73
2021/06/25 12:03:30;;;;;;;12.30;11.10;;;;;;;;;;485916;245;27504;-73